createdAt,value
2018-07-16T00:02:21.972Z,6.90
2018-07-16T00:04:50.248Z,5.72
2018-07-16T00:07:19.487Z,5.17
2018-07-16T00:09:48.127Z,8.05
2018-07-16T00:12:16.942Z,5.62
2018-07-16T00:14:45.456Z,7.53
2018-07-16T00:17:13.705Z,5.62
2018-07-16T00:19:41.988Z,6.37
2018-07-16T00:22:10.459Z,6.80
2018-07-16T00:24:39.132Z,6.85
2018-07-16T00:27:07.824Z,6.55
2018-07-16T00:29:36.127Z,8.40
2018-07-16T00:32:04.391Z,9.83
2018-07-16T00:34:32.652Z,6.25
2018-07-16T00:37:00.875Z,11.10
2018-07-16T00:39:29.202Z,6.92
2018-07-16T00:41:57.476Z,6.50
2018-07-16T00:44:25.937Z,6.08
2018-07-16T00:46:54.168Z,6.53
2018-07-16T00:49:22.604Z,6.50
2018-07-16T00:51:50.996Z,5.45
2018-07-16T00:54:19.267Z,7.62
2018-07-16T00:56:47.888Z,6.10
2018-07-16T00:59:16.547Z,7.12
2018-07-16T01:01:44.816Z,6.97
2018-07-16T01:04:13.075Z,6.33
2018-07-16T01:06:41.480Z,7.30
2018-07-16T01:09:10.166Z,7.85
2018-07-16T01:11:38.403Z,9.03
2018-07-16T01:14:07.456Z,10.15
2018-07-16T01:16:35.814Z,6.28
2018-07-16T01:19:04.089Z,9.25
2018-07-16T01:21:32.335Z,6.47
2018-07-16T01:24:00.635Z,6.42
2018-07-16T01:26:28.918Z,7.28
2018-07-16T01:28:57.158Z,10.38
2018-07-16T01:31:25.799Z,10.70
2018-07-16T01:33:54.019Z,11.50
2018-07-16T01:36:22.248Z,7.65
2018-07-16T01:38:50.704Z,8.95
2018-07-16T01:41:18.940Z,6.15
2018-07-16T01:43:47.171Z,7.30
2018-07-16T01:46:15.500Z,9.85
2018-07-16T01:48:43.768Z,5.78
2018-07-16T01:51:12.029Z,6.33
2018-07-16T01:53:40.366Z,8.25
2018-07-16T01:56:08.644Z,7.40
2018-07-16T01:58:36.864Z,8.33
2018-07-16T02:01:05.210Z,7.17
2018-07-16T02:03:34.319Z,9.20
2018-07-16T02:06:02.600Z,7.47
2018-07-16T02:08:30.835Z,6.40
2018-07-16T02:10:59.366Z,14.18
2018-07-16T02:13:27.598Z,7.22
2018-07-16T02:15:55.831Z,8.48
2018-07-16T02:18:24.302Z,7.65
2018-07-16T02:20:52.535Z,10.80
2018-07-16T02:23:21.244Z,7.25
2018-07-16T02:25:49.595Z,6.85
2018-07-16T02:28:18.156Z,14.40
2018-07-16T02:30:46.387Z,7.17
2018-07-16T02:33:14.612Z,8.03
2018-07-16T02:35:43.116Z,6.87
2018-07-16T02:38:11.355Z,11.00
2018-07-16T02:40:39.999Z,9.03
2018-07-16T02:43:08.441Z,10.55
2018-07-16T02:45:36.916Z,7.15
2018-07-16T02:48:05.419Z,8.20
2018-07-16T02:50:33.648Z,7.97
2018-07-16T02:53:01.876Z,6.78
2018-07-16T02:55:30.102Z,7.15
2018-07-16T02:57:58.760Z,6.47
2018-07-16T03:00:26.986Z,9.65
2018-07-16T03:02:55.224Z,6.90
2018-07-16T03:05:23.660Z,8.08
2018-07-16T03:07:51.904Z,7.15
2018-07-16T03:10:20.144Z,7.33
2018-07-16T03:12:48.896Z,10.48
2018-07-16T03:15:17.514Z,6.72
2018-07-16T03:17:45.765Z,7.83
2018-07-16T03:20:14.011Z,6.22
2018-07-16T03:22:42.227Z,8.45
2018-07-16T03:25:10.456Z,7.55
2018-07-16T03:27:38.677Z,8.35
2018-07-16T03:30:06.932Z,7.65
2018-07-16T03:32:35.195Z,9.25
2018-07-16T03:35:03.412Z,7.37
2018-07-16T03:37:31.639Z,7.40
2018-07-16T03:40:00.275Z,9.10
2018-07-16T03:42:28.683Z,7.45
2018-07-16T03:44:56.911Z,6.30
2018-07-16T03:47:25.142Z,7.10
2018-07-16T03:49:53.455Z,8.83
2018-07-16T03:52:21.732Z,7.20
2018-07-16T03:54:49.957Z,7.92
2018-07-16T03:57:18.287Z,7.08
2018-07-16T03:59:46.566Z,7.15
2018-07-16T04:02:14.803Z,6.47
2018-07-16T04:04:43.112Z,6.47
2018-07-16T04:07:11.338Z,7.35
2018-07-16T04:09:39.611Z,6.67
2018-07-16T04:12:07.940Z,7.87
2018-07-16T04:14:36.224Z,7.37
2018-07-16T04:17:04.464Z,6.08
2018-07-16T04:19:32.687Z,6.17
2018-07-16T04:22:00.922Z,6.95
2018-07-16T04:24:29.151Z,8.50
2018-07-16T04:26:57.395Z,9.80
2018-07-16T04:29:25.880Z,5.72
2018-07-16T04:31:54.143Z,6.95
2018-07-16T04:34:22.435Z,8.85
2018-07-16T04:36:50.656Z,9.63
2018-07-16T04:39:18.884Z,8.18
2018-07-16T04:41:47.259Z,7.33
2018-07-16T04:44:15.911Z,14.13
2018-07-16T04:46:44.158Z,13.65
2018-07-16T04:49:12.495Z,6.83
2018-07-16T04:51:40.740Z,21.97
2018-07-16T04:54:08.970Z,9.95
2018-07-16T04:56:37.199Z,12.70
2018-07-16T04:59:05.502Z,22.45
2018-07-16T05:01:34.223Z,11.65
2018-07-16T05:04:02.444Z,7.50
2018-07-16T05:06:31.160Z,6.87
2018-07-16T05:08:59.392Z,5.97
2018-07-16T05:11:27.620Z,9.15
2018-07-16T05:13:55.862Z,8.33
2018-07-16T05:16:24.083Z,12.45
2018-07-16T05:18:52.307Z,7.55
2018-07-16T05:21:20.542Z,6.60
2018-07-16T05:23:48.781Z,7.50
2018-07-16T05:26:17.044Z,11.93
2018-07-16T05:28:45.336Z,11.00
2018-07-16T05:31:13.579Z,7.70
2018-07-16T05:33:41.809Z,7.37
2018-07-16T05:36:10.164Z,7.70
2018-07-16T05:38:38.511Z,7.33
2018-07-16T05:41:06.780Z,10.85
2018-07-16T05:43:35.402Z,8.50
2018-07-16T05:46:03.679Z,12.13
2018-07-16T05:48:31.956Z,7.50
2018-07-16T05:51:00.188Z,18.05
2018-07-16T05:53:28.409Z,8.78
2018-07-16T05:55:56.668Z,18.98
2018-07-16T05:58:25.001Z,17.62
2018-07-16T06:00:53.231Z,16.70
2018-07-16T06:03:21.615Z,8.83
2018-07-16T06:05:49.836Z,8.03
2018-07-16T06:08:18.125Z,17.12
2018-07-16T06:10:46.448Z,17.92
2018-07-16T06:13:15.056Z,12.68
2018-07-16T06:15:43.284Z,10.20
2018-07-16T06:18:11.509Z,9.08
2018-07-16T06:20:39.956Z,24.15
2018-07-16T06:23:08.235Z,7.70
2018-07-16T06:25:36.523Z,9.45
2018-07-16T06:28:04.794Z,8.15
2018-07-16T06:30:33.393Z,6.60
2018-07-16T06:33:01.621Z,9.35
2018-07-16T06:35:30.026Z,9.53
2018-07-16T06:37:58.256Z,6.95
2018-07-16T06:40:26.663Z,9.85
2018-07-16T06:42:54.859Z,7.60
2018-07-16T06:45:23.136Z,8.08
2018-07-16T06:47:51.797Z,9.70
2018-07-16T06:50:20.012Z,7.37
2018-07-16T06:52:48.427Z,11.20
2018-07-16T06:55:16.723Z,7.47
2018-07-16T06:57:44.921Z,9.95
2018-07-16T07:00:13.616Z,9.40
2018-07-16T07:02:41.884Z,9.23
2018-07-16T07:05:10.499Z,15.70
2018-07-16T07:07:38.848Z,6.67
2018-07-16T07:10:07.150Z,6.22
2018-07-16T07:12:35.368Z,9.13
2018-07-16T07:15:03.720Z,6.67
2018-07-16T07:17:31.960Z,10.18
2018-07-16T07:20:00.236Z,6.70
2018-07-16T07:22:28.540Z,6.15
2018-07-16T07:24:56.802Z,5.70
2018-07-16T07:27:25.064Z,18.70
2018-07-16T07:29:53.748Z,8.87
2018-07-16T07:32:22.013Z,6.67
2018-07-16T07:34:50.308Z,10.30
2018-07-16T07:37:18.883Z,6.13
2018-07-16T07:39:47.192Z,9.10
2018-07-16T07:42:15.436Z,10.17
2018-07-16T07:44:43.805Z,15.37
2018-07-16T07:47:12.092Z,7.07
2018-07-16T07:49:40.326Z,6.07
2018-07-16T07:52:08.548Z,7.63
2018-07-16T07:54:37.096Z,9.20
2018-07-16T07:57:05.533Z,9.57
2018-07-16T07:59:33.880Z,5.63
2018-07-16T08:02:02.160Z,5.43
2018-07-16T08:04:30.436Z,5.43
2018-07-16T08:07:04.125Z,6.00
2018-07-16T08:09:32.647Z,6.87
2018-07-16T08:12:00.896Z,5.33
2018-07-16T08:14:29.328Z,6.93
2018-07-16T08:16:57.596Z,5.90
2018-07-16T08:19:25.840Z,7.00
2018-07-16T08:21:54.491Z,13.20
2018-07-16T08:24:22.797Z,4.93
2018-07-16T08:26:51.030Z,6.53
2018-07-16T08:29:19.259Z,6.17
2018-07-16T08:31:48.167Z,5.70
2018-07-16T08:34:16.728Z,4.73
2018-07-16T08:36:44.982Z,5.00
2018-07-16T08:39:13.291Z,4.20
2018-07-16T08:41:41.922Z,5.17
2018-07-16T08:44:10.231Z,4.40
2018-07-16T08:46:38.618Z,4.70
2018-07-16T08:49:07.356Z,5.20
2018-07-16T08:51:35.880Z,4.30
2018-07-16T08:54:04.132Z,4.30
2018-07-16T08:56:32.368Z,13.53
2018-07-16T08:59:00.603Z,4.40
2018-07-16T09:01:28.864Z,3.83
2018-07-16T09:03:57.130Z,5.00
2018-07-16T09:06:25.875Z,3.60
2018-07-16T09:08:54.249Z,3.90
2018-07-16T09:11:22.524Z,4.20
2018-07-16T09:13:50.780Z,4.30
2018-07-16T09:16:19.043Z,5.53
2018-07-16T09:18:47.277Z,3.67
2018-07-16T09:21:15.517Z,4.00
2018-07-16T09:23:43.921Z,5.27
2018-07-16T09:26:12.164Z,3.90
2018-07-16T09:28:40.397Z,2.40
2018-07-16T09:31:09.534Z,2.83
2018-07-16T09:33:37.768Z,7.40
2018-07-16T09:36:05.992Z,3.83
2018-07-16T09:38:34.227Z,3.53
2018-07-16T09:41:02.978Z,3.77
2018-07-16T09:43:31.207Z,3.57
2018-07-16T09:45:59.748Z,3.30
2018-07-16T09:48:27.984Z,3.23
2018-07-16T09:50:56.231Z,4.13
2018-07-16T09:53:24.453Z,4.60
2018-07-16T09:55:52.747Z,3.50
2018-07-16T09:58:21.244Z,5.00
2018-07-16T10:00:54.952Z,3.00
2018-07-16T10:03:23.845Z,2.90
2018-07-16T10:05:52.369Z,3.33
2018-07-16T10:08:20.689Z,4.40
2018-07-16T10:10:48.897Z,3.87
2018-07-16T10:13:17.129Z,3.17
2018-07-16T10:15:45.585Z,2.60
2018-07-16T10:18:13.836Z,2.70
2018-07-16T10:20:42.386Z,2.23
2018-07-16T10:23:10.613Z,4.53
2018-07-16T10:25:38.848Z,2.67
2018-07-16T10:28:07.108Z,2.80
2018-07-16T10:30:35.360Z,2.67
2018-07-16T10:33:03.608Z,3.20
2018-07-16T10:35:31.879Z,2.73
2018-07-16T10:38:00.708Z,2.30
2018-07-16T10:40:28.985Z,3.40
2018-07-16T10:42:57.336Z,10.23
2018-07-16T10:45:25.588Z,4.10
2018-07-16T10:47:53.890Z,3.00
2018-07-16T10:50:22.124Z,2.40
2018-07-16T10:52:50.360Z,3.50
2018-07-16T10:55:19.103Z,2.40
2018-07-16T10:57:47.408Z,3.20
2018-07-16T11:00:15.631Z,2.90
2018-07-16T11:02:43.868Z,1.60
2018-07-16T11:05:12.331Z,1.90
2018-07-16T11:07:40.576Z,1.70
2018-07-16T11:10:08.808Z,1.50
2018-07-16T11:12:37.069Z,1.40
2018-07-16T11:15:05.886Z,1.27
2018-07-16T11:17:34.367Z,4.10
2018-07-16T11:20:03.136Z,3.67
2018-07-16T11:22:31.368Z,1.50
2018-07-16T11:24:59.600Z,0.90
2018-07-16T11:27:28.259Z,1.50
2018-07-16T11:29:56.802Z,0.93
2018-07-16T11:32:25.036Z,3.63
2018-07-16T11:34:53.524Z,0.80
2018-07-16T11:37:21.768Z,1.40
2018-07-16T11:39:50.017Z,3.40
2018-07-16T11:42:18.300Z,5.40
2018-07-16T11:44:46.531Z,1.83
2018-07-16T11:47:14.761Z,1.67
2018-07-16T11:49:42.998Z,2.40
2018-07-16T11:52:11.419Z,1.53
2018-07-16T11:54:39.643Z,1.70
2018-07-16T11:57:08.300Z,1.77
2018-07-16T11:59:36.608Z,1.27
2018-07-16T12:02:04.854Z,0.93
2018-07-16T12:04:33.087Z,1.00
2018-07-16T12:07:01.324Z,1.20
2018-07-16T12:09:29.556Z,1.17
2018-07-16T12:11:58.152Z,3.63
2018-07-16T12:14:26.392Z,1.33
2018-07-16T12:16:54.880Z,0.90
2018-07-16T12:19:23.101Z,1.23
2018-07-16T12:21:51.364Z,2.60
2018-07-16T12:24:19.860Z,1.47
2018-07-16T12:26:48.100Z,1.63
2018-07-16T12:29:16.339Z,1.07
2018-07-16T12:31:44.579Z,0.90
2018-07-16T12:34:13.394Z,1.20
2018-07-16T12:36:41.622Z,0.90
2018-07-16T12:39:09.844Z,2.23
2018-07-16T12:41:38.258Z,1.00
2018-07-16T12:44:06.404Z,8.00
2018-07-16T12:46:34.639Z,1.20
2018-07-16T12:49:02.872Z,1.40
2018-07-16T12:51:31.328Z,1.40
2018-07-16T12:53:59.560Z,1.30
2018-07-16T12:56:27.915Z,1.40
2018-07-16T12:58:56.172Z,2.03
2018-07-16T13:01:24.404Z,2.07
2018-07-16T13:03:52.644Z,6.40
2018-07-16T13:06:23.344Z,1.87
2018-07-16T13:08:52.820Z,1.43
2018-07-16T13:11:21.096Z,1.40
2018-07-16T13:13:49.340Z,1.50
2018-07-16T13:16:17.676Z,2.80
2018-07-16T13:18:45.976Z,2.33
2018-07-16T13:21:14.211Z,1.60
2018-07-16T13:23:42.460Z,2.07
2018-07-16T13:26:11.706Z,2.20
2018-07-16T13:28:40.464Z,2.40
2018-07-16T13:31:08.688Z,2.17
2018-07-16T13:33:36.944Z,2.60
2018-07-16T13:36:05.384Z,2.40
2018-07-16T13:38:33.627Z,1.50
2018-07-16T13:41:01.864Z,3.13
2018-07-16T13:43:30.389Z,2.87
2018-07-16T13:45:58.625Z,3.87
2018-07-16T13:48:26.944Z,2.17
2018-07-16T13:50:55.173Z,1.70
2018-07-16T13:53:23.660Z,2.07
2018-07-16T13:55:51.932Z,4.63
2018-07-16T13:58:20.420Z,2.37
2018-07-16T14:00:48.723Z,1.93
2018-07-16T14:03:17.032Z,1.87
2018-07-16T14:05:45.268Z,2.23
2018-07-16T14:08:13.511Z,5.60
2018-07-16T14:10:41.799Z,4.30
2018-07-16T14:13:10.051Z,6.40
2018-07-16T14:15:38.324Z,1.80
2018-07-16T14:18:06.740Z,4.23
2018-07-16T14:20:35.176Z,1.97
2018-07-16T14:23:03.403Z,2.67
2018-07-16T14:25:31.636Z,1.83
2018-07-16T14:28:00.328Z,2.90
2018-07-16T14:30:29.456Z,2.00
2018-07-16T14:32:57.684Z,1.33
2018-07-16T14:35:25.984Z,1.70
2018-07-16T14:37:54.234Z,1.97
2018-07-16T14:40:22.495Z,1.93
2018-07-16T14:42:50.760Z,2.20
2018-07-16T14:45:18.993Z,2.07
2018-07-16T14:47:47.234Z,1.80
2018-07-16T14:50:15.474Z,3.97
2018-07-16T14:52:43.991Z,1.53
2018-07-16T14:55:12.224Z,4.00
2018-07-16T14:57:40.473Z,1.63
2018-07-16T15:00:08.720Z,1.73
2018-07-16T15:02:37.039Z,1.90
2018-07-16T15:05:05.729Z,2.03
2018-07-16T15:07:33.961Z,3.77
2018-07-16T15:10:02.596Z,1.63
2018-07-16T15:12:30.940Z,2.00
2018-07-16T15:14:59.200Z,1.67
2018-07-16T15:17:27.436Z,1.93
2018-07-16T15:19:55.811Z,2.30
2018-07-16T15:22:24.044Z,2.03
2018-07-16T15:24:52.647Z,2.00
2018-07-16T15:27:21.176Z,2.30
2018-07-16T15:29:49.466Z,2.30
2018-07-16T15:32:17.677Z,6.73
2018-07-16T15:34:45.940Z,2.13
2018-07-16T15:37:14.190Z,2.00
2018-07-16T15:39:42.415Z,2.30
2018-07-16T15:42:11.067Z,2.20
2018-07-16T15:44:39.695Z,2.00
2018-07-16T15:47:08.856Z,3.67
2018-07-16T15:49:37.103Z,2.40
2018-07-16T15:52:05.360Z,2.67
2018-07-16T15:54:33.674Z,2.73
2018-07-16T15:57:01.925Z,2.20
2018-07-16T15:59:30.180Z,3.13
2018-07-16T16:01:58.476Z,3.00
2018-07-16T16:04:26.752Z,2.33
2018-07-16T16:06:55.063Z,2.50
2018-07-16T16:09:23.379Z,3.30
2018-07-16T16:11:51.624Z,2.83
2018-07-16T16:14:20.305Z,11.87
2018-07-16T16:16:48.659Z,2.70
2018-07-16T16:19:17.198Z,4.07
2018-07-16T16:21:45.901Z,3.47
2018-07-16T16:24:14.175Z,2.80
2018-07-16T16:26:42.451Z,3.47
2018-07-16T16:29:10.932Z,2.90
2018-07-16T16:31:39.755Z,9.80
2018-07-16T16:34:08.028Z,3.60
2018-07-16T16:36:36.357Z,3.80
2018-07-16T16:39:05.962Z,2.90
2018-07-16T16:41:34.641Z,3.03
2018-07-16T16:44:03.343Z,3.33
2018-07-16T16:46:31.672Z,2.97
2018-07-16T16:48:59.946Z,3.00
2018-07-16T16:51:28.220Z,3.80
2018-07-16T16:53:56.492Z,3.57
2018-07-16T16:56:25.091Z,4.00
2018-07-16T16:58:53.388Z,3.60
2018-07-16T17:01:21.988Z,5.13
2018-07-16T17:03:50.215Z,4.97
2018-07-16T17:06:18.448Z,4.13
2018-07-16T17:08:46.704Z,3.63
2018-07-16T17:11:14.999Z,3.70
2018-07-16T17:13:43.452Z,3.57
2018-07-16T17:16:11.972Z,3.90
2018-07-16T17:18:40.494Z,5.70
2018-07-16T17:21:08.761Z,4.57
2018-07-16T17:23:37.027Z,4.10
2018-07-16T17:26:05.468Z,3.80
2018-07-16T17:28:33.960Z,3.67
2018-07-16T17:31:02.220Z,3.90
2018-07-16T17:33:30.496Z,3.60
2018-07-16T17:35:58.752Z,3.67
2018-07-16T17:38:26.988Z,4.90
2018-07-16T17:40:55.223Z,4.20
2018-07-16T17:43:23.920Z,7.03
2018-07-16T17:45:52.232Z,7.60
2018-07-16T17:48:20.548Z,4.20
2018-07-16T17:50:49.152Z,4.00
2018-07-16T17:53:17.414Z,9.17
2018-07-16T17:55:45.766Z,3.33
2018-07-16T17:58:14.011Z,4.50
2018-07-16T18:00:42.280Z,3.80
2018-07-16T18:03:10.836Z,3.30
2018-07-16T18:05:39.112Z,3.03
2018-07-16T18:08:07.352Z,3.27
2018-07-16T18:10:35.856Z,3.87
2018-07-16T18:13:04.645Z,3.50
2018-07-16T18:15:33.212Z,4.07
2018-07-16T18:18:01.491Z,4.37
2018-07-16T18:20:29.740Z,4.07
2018-07-16T18:22:58.056Z,4.20
2018-07-16T18:25:26.338Z,4.20
2018-07-16T18:27:54.612Z,4.13
2018-07-16T18:30:23.227Z,4.17
2018-07-16T18:32:51.467Z,4.40
2018-07-16T18:35:20.298Z,15.07
2018-07-16T18:37:48.780Z,4.40
2018-07-16T18:40:17.028Z,4.17
2018-07-16T18:42:45.504Z,4.30
2018-07-16T18:45:14.084Z,5.50
2018-07-16T18:47:42.397Z,5.23
2018-07-16T18:50:10.653Z,4.13
2018-07-16T18:52:38.914Z,3.90
2018-07-16T18:55:07.493Z,4.83
2018-07-16T18:57:35.987Z,4.50
2018-07-16T19:00:05.558Z,5.67
2018-07-16T19:02:33.832Z,5.27
2018-07-16T19:05:02.720Z,4.03
2018-07-16T19:07:30.947Z,4.80
2018-07-16T19:09:59.416Z,7.33
2018-07-16T19:12:27.644Z,5.33
2018-07-16T19:14:55.960Z,4.27
2018-07-16T19:17:24.205Z,5.40
2018-07-16T19:19:52.484Z,9.30
2018-07-16T19:22:20.736Z,5.80
2018-07-16T19:24:48.972Z,6.13
2018-07-16T19:27:17.256Z,5.43
2018-07-16T19:29:45.536Z,5.63
2018-07-16T19:32:13.768Z,6.60
2018-07-16T19:34:42.011Z,5.63
2018-07-16T19:37:10.476Z,6.20
2018-07-16T19:39:38.717Z,11.20
2018-07-16T19:42:07.416Z,5.93
2018-07-16T19:44:35.886Z,10.90
2018-07-16T19:47:04.322Z,5.67
2018-07-16T19:49:32.652Z,8.47
2018-07-16T19:52:00.884Z,7.10
2018-07-16T19:54:29.208Z,8.43
2018-07-16T19:56:57.509Z,9.93
2018-07-16T19:59:25.821Z,16.33
2018-07-16T20:01:54.051Z,6.40
2018-07-16T20:04:22.312Z,6.93
2018-07-16T20:06:55.385Z,7.28
2018-07-16T20:09:24.600Z,7.20
2018-07-16T20:11:52.864Z,8.08
2018-07-16T20:14:21.143Z,8.98
2018-07-16T20:16:49.388Z,5.90
2018-07-16T20:19:17.637Z,10.45
2018-07-16T20:21:45.872Z,8.85
2018-07-16T20:24:14.124Z,7.35
2018-07-16T20:26:42.592Z,6.65
2018-07-16T20:29:10.836Z,5.97
2018-07-16T20:31:39.164Z,6.65
2018-07-16T20:34:07.674Z,6.20
2018-07-16T20:36:35.924Z,6.28
2018-07-16T20:39:05.173Z,6.28
2018-07-16T20:41:33.904Z,6.65
2018-07-16T20:44:02.212Z,6.17
2018-07-16T20:46:30.452Z,7.40
2018-07-16T20:48:58.697Z,6.08
2018-07-16T20:51:26.950Z,8.23
2018-07-16T20:53:55.224Z,8.90
2018-07-16T20:56:23.519Z,8.43
2018-07-16T20:58:51.772Z,6.85
2018-07-16T21:01:20.789Z,5.90
2018-07-16T21:03:49.258Z,6.65
2018-07-16T21:06:17.812Z,7.20
2018-07-16T21:08:46.056Z,6.70
2018-07-16T21:11:14.335Z,6.80
2018-07-16T21:13:43.374Z,7.12
2018-07-16T21:16:11.752Z,6.58
2018-07-16T21:18:40.365Z,8.43
2018-07-16T21:21:08.716Z,9.00
2018-07-16T21:23:37.404Z,7.05
2018-07-16T21:26:06.220Z,8.38
2018-07-16T21:28:34.768Z,6.53
2018-07-16T21:31:03.020Z,6.80
2018-07-16T21:33:31.276Z,7.20
2018-07-16T21:35:59.632Z,9.08
2018-07-16T21:38:27.878Z,7.70
2018-07-16T21:40:56.152Z,7.22
2018-07-16T21:43:24.427Z,7.00
2018-07-16T21:45:52.998Z,13.13
2018-07-16T21:48:21.308Z,6.55
2018-07-16T21:50:49.539Z,7.42
2018-07-16T21:53:17.798Z,14.20
2018-07-16T21:55:46.287Z,6.70
2018-07-16T21:58:14.914Z,7.83
2018-07-16T22:00:43.222Z,14.47
2018-07-16T22:03:11.445Z,7.72
2018-07-16T22:05:39.724Z,9.73
2018-07-16T22:08:08.017Z,8.65
2018-07-16T22:10:36.697Z,7.87
2018-07-16T22:13:04.961Z,8.08
2018-07-16T22:15:33.665Z,7.42
2018-07-16T22:18:02.348Z,9.60
2018-07-16T22:20:30.639Z,9.00
2018-07-16T22:22:58.897Z,7.58
2018-07-16T22:25:27.422Z,8.98
2018-07-16T22:27:55.658Z,9.68
2018-07-16T22:30:23.897Z,9.70
2018-07-16T22:32:52.449Z,7.58
2018-07-16T22:35:20.706Z,9.53
2018-07-16T22:37:48.972Z,10.68
2018-07-16T22:40:17.240Z,7.03
2018-07-16T22:42:45.483Z,8.28
2018-07-16T22:45:13.806Z,10.03
2018-07-16T22:47:42.476Z,7.53
2018-07-16T22:50:10.749Z,7.80
2018-07-16T22:52:39.448Z,9.20
2018-07-16T22:55:07.676Z,8.13
2018-07-16T22:57:35.912Z,7.62
2018-07-16T23:00:05.104Z,16.17
2018-07-16T23:02:33.372Z,12.03
2018-07-16T23:05:01.649Z,9.70
2018-07-16T23:07:30.260Z,9.60
2018-07-16T23:09:58.492Z,19.50
2018-07-16T23:12:26.748Z,6.65
2018-07-16T23:14:54.981Z,8.60
2018-07-16T23:17:23.449Z,14.68
2018-07-16T23:19:51.720Z,7.60
2018-07-16T23:22:19.965Z,12.82
2018-07-16T23:24:48.613Z,8.00
2018-07-16T23:27:16.850Z,7.87
2018-07-16T23:29:45.105Z,12.00
2018-07-16T23:32:13.920Z,7.95
2018-07-16T23:34:42.165Z,8.88
2018-07-16T23:37:10.417Z,8.65
2018-07-16T23:39:38.828Z,9.85
2018-07-16T23:42:07.092Z,8.68
2018-07-16T23:44:35.360Z,8.93
2018-07-16T23:47:03.652Z,10.70
2018-07-16T23:49:32.264Z,8.90
2018-07-16T23:52:00.514Z,11.35
2018-07-16T23:54:28.824Z,10.65
2018-07-16T23:56:57.096Z,8.10
2018-07-16T23:59:25.713Z,12.63
